sensor_id;sensor_type;location;lat;lon;timestamp;noise_LAeq;noise_LA_min;noise_LA_max;noise_LA01;noise_LA95
67308;Laerm;57662;51.436;5.978;2023-02-28T00:00:10;44.00;31.04;56.78;;
67308;Laerm;57662;51.436;5.978;2023-02-28T00:00:21;31.66;30.01;33.07;;
67308;Laerm;57662;51.436;5.978;2023-02-28T00:00:32;31.47;30.00;32.75;;
67308;Laerm;57662;51.436;5.978;2023-02-28T00:00:43;31.63;30.35;33.31;;
67308;Laerm;57662;51.436;5.978;2023-02-28T00:00:53;31.62;30.04;33.23;;
67308;Laerm;57662;51.436;5.978;2023-02-28T00:01:04;31.57;30.03;33.09;;
67308;Laerm;57662;51.436;5.978;2023-02-28T00:01:14;31.48;30.20;32.96;;
67308;Laerm;57662;51.436;5.978;2023-02-28T00:01:26;31.42;29.98;33.18;;
67308;Laerm;57662;51.436;5.978;2023-02-28T00:01:36;31.53;30.21;33.09;;
67308;Laerm;57662;51.436;5.978;2023-02-28T00:01:46;31.56;29.75;32.97;;
67308;Laerm;57662;51.436;5.978;2023-02-28T00:01:57;31.52;30.21;33.41;;
67308;Laerm;57662;51.436;5.978;2023-02-28T00:02:07;31.57;30.34;33.12;;
67308;Laerm;57662;51.436;5.978;2023-02-28T00:02:17;31.49;30.30;32.85;;
67308;Laerm;57662;51.436;5.978;2023-02-28T00:02:28;31.52;30.25;32.75;;
67308;Laerm;57662;51.436;5.978;2023-02-28T00:02:39;31.52;30.09;33.02;;
67308;Laerm;57662;51.436;5.978;2023-02-28T00:02:50;31.71;30.19;33.32;;
67308;Laerm;57662;51.436;5.978;2023-02-28T00:03:00;31.67;30.28;33.10;;
67308;Laerm;57662;51.436;5.978;2023-02-28T00:03:10;31.93;30.07;34.62;;
67308;Laerm;57662;51.436;5.978;2023-02-28T00:03:21;31.65;29.91;35.60;;
67308;Laerm;57662;51.436;5.978;2023-02-28T00:03:31;31.39;29.94;32.88;;
67308;Laerm;57662;51.436;5.978;2023-02-28T00:03:45;31.34;30.05;32.61;;
67308;Laerm;57662;51.436;5.978;2023-02-28T00:03:56;31.51;29.97;32.79;;
67308;Laerm;57662;51.436;5.978;2023-02-28T00:04:06;31.66;30.23;33.31;;
67308;Laerm;57662;51.436;5.978;2023-02-28T00:04:19;31.60;30.23;32.90;;
67308;Laerm;57662;51.436;5.978;2023-02-28T00:04:29;31.61;30.09;33.26;;
67308;Laerm;57662;51.436;5.978;2023-02-28T00:04:40;31.52;30.40;32.90;;
67308;Laerm;57662;51.436;5.978;2023-02-28T00:04:50;31.48;30.15;33.07;;
67308;Laerm;57662;51.436;5.978;2023-02-28T00:05:03;31.52;30.03;33.13;;
67308;Laerm;57662;51.436;5.978;2023-02-28T00:05:15;31.50;29.72;33.06;;
67308;Laerm;57662;51.436;5.978;2023-02-28T00:05:26;31.53;30.21;32.81;;
67308;Laerm;57662;51.436;5.978;2023-02-28T00:05:37;31.49;30.06;33.11;;
67308;Laerm;57662;51.436;5.978;2023-02-28T00:05:47;31.47;30.01;32.95;;
67308;Laerm;57662;51.436;5.978;2023-02-28T00:05:58;31.52;30.39;33.01;;
67308;Laerm;57662;51.436;5.978;2023-02-28T00:06:08;31.44;30.05;32.76;;
67308;Laerm;57662;51.436;5.978;2023-02-28T00:06:19;31.48;30.13;33.07;;
67308;Laerm;57662;51.436;5.978;2023-02-28T00:06:30;31.54;30.10;33.24;;
67308;Laerm;57662;51.436;5.978;2023-02-28T00:06:41;31.43;30.28;32.85;;
67308;Laerm;57662;51.436;5.978;2023-02-28T00:06:52;31.34;29.81;32.57;;
67308;Laerm;57662;51.436;5.978;2023-02-28T00:07:03;31.50;30.05;33.39;;
67308;Laerm;57662;51.436;5.978;2023-02-28T00:07:13;31.49;29.99;32.97;;
67308;Laerm;57662;51.436;5.978;2023-02-28T00:07:23;31.54;30.07;32.81;;
67308;Laerm;57662;51.436;5.978;2023-02-28T00:07:35;31.49;30.27;32.74;;
67308;Laerm;57662;51.436;5.978;2023-02-28T00:07:45;31.39;30.06;32.96;;
67308;Laerm;57662;51.436;5.978;2023-02-28T00:07:56;31.62;30.16;33.33;;
67308;Laerm;57662;51.436;5.978;2023-02-28T00:08:07;31.77;30.13;33.64;;
67308;Laerm;57662;51.436;5.978;2023-02-28T00:08:17;31.73;30.52;33.20;;
67308;Laerm;57662;51.436;5.978;2023-02-28T00:08:28;31.78;30.27;34.05;;
67308;Laerm;57662;51.436;5.978;2023-02-28T00:08:38;31.61;30.26;32.92;;
67308;Laerm;57662;51.436;5.978;2023-02-28T00:08:49;31.53;30.36;33.09;;
67308;Laerm;57662;51.436;5.978;2023-02-28T00:08:59;31.70;29.88;32.98;;
67308;Laerm;57662;51.436;5.978;2023-02-28T00:09:10;31.48;30.39;32.67;;
67308;Laerm;57662;51.436;5.978;2023-02-28T00:09:20;31.51;30.44;32.86;;
67308;Laerm;57662;51.436;5.978;2023-02-28T00:09:30;31.51;30.30;32.94;;
67308;Laerm;57662;51.436;5.978;2023-02-28T00:09:41;31.46;30.10;32.76;;
67308;Laerm;57662;51.436;5.978;2023-02-28T00:09:51;31.46;30.30;32.85;;
67308;Laerm;57662;51.436;5.978;2023-02-28T00:10:02;31.53;29.91;32.96;;
67308;Laerm;57662;51.436;5.978;2023-02-28T00:10:14;31.55;29.89;32.75;;
67308;Laerm;57662;51.436;5.978;2023-02-28T00:10:26;31.58;30.08;33.82;;
67308;Laerm;57662;51.436;5.978;2023-02-28T00:10:36;31.68;30.39;33.83;;
67308;Laerm;57662;51.436;5.978;2023-02-28T00:10:47;31.76;30.17;33.33;;
67308;Laerm;57662;51.436;5.978;2023-02-28T00:11:00;31.63;30.32;33.01;;
67308;Laerm;57662;51.436;5.978;2023-02-28T00:11:12;31.55;30.27;32.97;;
67308;Laerm;57662;51.436;5.978;2023-02-28T00:11:22;31.41;30.01;32.85;;
67308;Laerm;57662;51.436;5.978;2023-02-28T00:11:33;31.60;30.32;33.04;;
67308;Laerm;57662;51.436;5.978;2023-02-28T00:11:43;31.52;30.24;32.92;;
67308;Laerm;57662;51.436;5.978;2023-02-28T00:11:53;31.48;29.91;33.00;;
67308;Laerm;57662;51.436;5.978;2023-02-28T00:12:04;31.57;30.31;33.15;;
67308;Laerm;57662;51.436;5.978;2023-02-28T00:12:20;31.51;30.26;32.90;;
67308;Laerm;57662;51.436;5.978;2023-02-28T00:12:30;31.39;30.20;32.95;;
67308;Laerm;57662;51.436;5.978;2023-02-28T00:12:41;31.63;30.46;33.23;;
67308;Laerm;57662;51.436;5.978;2023-02-28T00:12:52;44.97;31.26;50.14;;
67308;Laerm;57662;51.436;5.978;2023-02-28T00:13:03;43.22;38.01;48.31;;
67308;Laerm;57662;51.436;5.978;2023-02-28T00:13:14;41.74;36.52;45.82;;
67308;Laerm;57662;51.436;5.978;2023-02-28T00:13:25;59.43;40.60;70.70;;
67308;Laerm;57662;51.436;5.978;2023-02-28T00:13:36;69.14;66.68;72.62;;
67308;Laerm;57662;51.436;5.978;2023-02-28T00:13:47;67.33;61.30;70.75;;
67308;Laerm;57662;51.436;5.978;2023-02-28T00:13:58;54.03;44.24;63.32;;
67308;Laerm;57662;51.436;5.978;2023-02-28T00:14:08;43.12;39.48;47.70;;
67308;Laerm;57662;51.436;5.978;2023-02-28T00:14:19;42.31;38.68;46.76;;
67308;Laerm;57662;51.436;5.978;2023-02-28T00:14:30;39.72;36.34;50.74;;
67308;Laerm;57662;51.436;5.978;2023-02-28T00:14:40;37.73;35.12;40.37;;
67308;Laerm;57662;51.436;5.978;2023-02-28T00:14:51;38.65;35.77;41.72;;
67308;Laerm;57662;51.436;5.978;2023-02-28T00:15:02;35.93;32.63;40.22;;
67308;Laerm;57662;51.436;5.978;2023-02-28T00:15:12;33.34;31.69;35.56;;
67308;Laerm;57662;51.436;5.978;2023-02-28T00:15:23;32.76;30.92;34.37;;
67308;Laerm;57662;51.436;5.978;2023-02-28T00:15:34;32.74;30.99;34.82;;
67308;Laerm;57662;51.436;5.978;2023-02-28T00:15:44;32.39;30.71;33.91;;
67308;Laerm;57662;51.436;5.978;2023-02-28T00:16:03;32.05;30.36;33.45;;
67308;Laerm;57662;51.436;5.978;2023-02-28T00:16:15;32.09;30.63;33.62;;
67308;Laerm;57662;51.436;5.978;2023-02-28T00:16:25;32.01;30.62;33.44;;
67308;Laerm;57662;51.436;5.978;2023-02-28T00:16:36;31.95;30.56;33.55;;
67308;Laerm;57662;51.436;5.978;2023-02-28T00:16:47;32.00;30.57;33.46;;
67308;Laerm;57662;51.436;5.978;2023-02-28T00:16:57;32.05;30.90;33.48;;
67308;Laerm;57662;51.436;5.978;2023-02-28T00:17:07;31.77;30.27;33.57;;
67308;Laerm;57662;51.436;5.978;2023-02-28T00:17:17;31.67;30.40;35.59;;
67308;Laerm;57662;51.436;5.978;2023-02-28T00:17:31;31.70;30.35;33.19;;
67308;Laerm;57662;51.436;5.978;2023-02-28T00:17:42;32.04;30.70;34.79;;
67308;Laerm;57662;51.436;5.978;2023-02-28T00:17:52;32.50;30.51;34.65;;
67308;Laerm;57662;51.436;5.978;2023-02-28T00:18:02;32.81;31.01;35.59;;
67308;Laerm;57662;51.436;5.978;2023-02-28T00:18:13;31.98;30.73;33.88;;
67308;Laerm;57662;51.436;5.978;2023-02-28T00:18:23;31.86;30.15;34.10;;
67308;Laerm;57662;51.436;5.978;2023-02-28T00:18:33;32.55;30.53;36.74;;
67308;Laerm;57662;51.436;5.978;2023-02-28T00:18:44;31.76;30.13;33.37;;
67308;Laerm;57662;51.436;5.978;2023-02-28T00:18:54;31.94;30.43;33.51;;
67308;Laerm;57662;51.436;5.978;2023-02-28T00:19:05;31.68;30.13;33.34;;
67308;Laerm;57662;51.436;5.978;2023-02-28T00:19:15;31.53;30.01;33.28;;
67308;Laerm;57662;51.436;5.978;2023-02-28T00:19:26;31.57;30.39;32.92;;
67308;Laerm;57662;51.436;5.978;2023-02-28T00:19:36;31.60;30.26;32.92;;
67308;Laerm;57662;51.436;5.978;2023-02-28T00:19:49;31.74;30.06;33.42;;
67308;Laerm;57662;51.436;5.978;2023-02-28T00:20:00;31.75;29.95;33.10;;
67308;Laerm;57662;51.436;5.978;2023-02-28T00:20:21;31.58;30.17;33.04;;
67308;Laerm;57662;51.436;5.978;2023-02-28T00:20:32;31.53;30.17;32.87;;
67308;Laerm;57662;51.436;5.978;2023-02-28T00:20:42;31.40;30.19;32.85;;
67308;Laerm;57662;51.436;5.978;2023-02-28T00:20:52;31.32;30.13;33.17;;
67308;Laerm;57662;51.436;5.978;2023-02-28T00:21:03;31.46;30.02;32.82;;
67308;Laerm;57662;51.436;5.978;2023-02-28T00:21:14;31.41;29.45;32.58;;
67308;Laerm;57662;51.436;5.978;2023-02-28T00:21:24;31.77;30.32;38.78;;
67308;Laerm;57662;51.436;5.978;2023-02-28T00:21:35;31.61;30.29;32.71;;
67308;Laerm;57662;51.436;5.978;2023-02-28T00:21:45;31.55;30.39;33.03;;
67308;Laerm;57662;51.436;5.978;2023-02-28T00:21:56;31.65;30.43;33.07;;
67308;Laerm;57662;51.436;5.978;2023-02-28T00:22:06;31.57;30.18;32.81;;
67308;Laerm;57662;51.436;5.978;2023-02-28T00:22:17;31.53;30.07;32.90;;
67308;Laerm;57662;51.436;5.978;2023-02-28T00:22:28;31.52;30.45;32.72;;
67308;Laerm;57662;51.436;5.978;2023-02-28T00:22:39;31.57;30.42;32.88;;
67308;Laerm;57662;51.436;5.978;2023-02-28T00:22:50;31.46;29.61;32.82;;
67308;Laerm;57662;51.436;5.978;2023-02-28T00:23:01;31.67;30.22;33.06;;
67308;Laerm;57662;51.436;5.978;2023-02-28T00:23:11;31.59;30.41;33.16;;
67308;Laerm;57662;51.436;5.978;2023-02-28T00:23:22;31.50;30.19;33.05;;
67308;Laerm;57662;51.436;5.978;2023-02-28T00:23:32;31.53;30.26;32.74;;
67308;Laerm;57662;51.436;5.978;2023-02-28T00:23:43;31.49;30.03;32.65;;
67308;Laerm;57662;51.436;5.978;2023-02-28T00:23:54;31.64;30.28;33.32;;
67308;Laerm;57662;51.436;5.978;2023-02-28T00:24:05;31.50;30.18;33.12;;
67308;Laerm;57662;51.436;5.978;2023-02-28T00:24:15;31.50;30.21;32.70;;
67308;Laerm;57662;51.436;5.978;2023-02-28T00:24:25;31.47;30.22;34.33;;
67308;Laerm;57662;51.436;5.978;2023-02-28T00:24:36;31.54;30.08;33.38;;
67308;Laerm;57662;51.436;5.978;2023-02-28T00:24:46;31.55;30.14;32.81;;
67308;Laerm;57662;51.436;5.978;2023-02-28T00:24:57;31.43;30.21;32.97;;
67308;Laerm;57662;51.436;5.978;2023-02-28T00:25:08;31.60;30.34;33.32;;
67308;Laerm;57662;51.436;5.978;2023-02-28T00:25:20;31.56;30.15;32.97;;
67308;Laerm;57662;51.436;5.978;2023-02-28T00:25:31;31.63;30.17;33.01;;
67308;Laerm;57662;51.436;5.978;2023-02-28T00:25:42;31.52;30.37;32.72;;
67308;Laerm;57662;51.436;5.978;2023-02-28T00:25:52;31.52;29.98;32.58;;
67308;Laerm;57662;51.436;5.978;2023-02-28T00:26:02;31.47;30.07;33.46;;
67308;Laerm;57662;51.436;5.978;2023-02-28T00:26:13;31.44;30.25;32.85;;
67308;Laerm;57662;51.436;5.978;2023-02-28T00:26:24;31.42;30.07;32.99;;
67308;Laerm;57662;51.436;5.978;2023-02-28T00:26:34;31.67;30.15;34.78;;
67308;Laerm;57662;51.436;5.978;2023-02-28T00:26:44;31.57;30.09;33.08;;
67308;Laerm;57662;51.436;5.978;2023-02-28T00:26:55;31.57;30.27;33.06;;
67308;Laerm;57662;51.436;5.978;2023-02-28T00:27:05;31.57;29.86;32.73;;
67308;Laerm;57662;51.436;5.978;2023-02-28T00:27:15;31.91;30.46;35.05;;
67308;Laerm;57662;51.436;5.978;2023-02-28T00:27:26;31.59;30.30;32.81;;
67308;Laerm;57662;51.436;5.978;2023-02-28T00:27:37;31.62;30.18;32.93;;
67308;Laerm;57662;51.436;5.978;2023-02-28T00:27:49;31.78;29.97;34.29;;
67308;Laerm;57662;51.436;5.978;2023-02-28T00:27:59;31.60;30.07;33.13;;
67308;Laerm;57662;51.436;5.978;2023-02-28T00:28:09;31.56;29.99;32.75;;
67308;Laerm;57662;51.436;5.978;2023-02-28T00:28:20;31.49;30.00;33.06;;
67308;Laerm;57662;51.436;5.978;2023-02-28T00:28:30;31.66;30.40;33.08;;
67308;Laerm;57662;51.436;5.978;2023-02-28T00:28:40;31.61;30.40;33.09;;
67308;Laerm;57662;51.436;5.978;2023-02-28T00:28:51;31.46;30.25;33.67;;
67308;Laerm;57662;51.436;5.978;2023-02-28T00:29:02;32.60;30.08;38.93;;
67308;Laerm;57662;51.436;5.978;2023-02-28T00:29:12;32.75;30.24;38.43;;
67308;Laerm;57662;51.436;5.978;2023-02-28T00:29:23;31.44;30.09;32.81;;
67308;Laerm;57662;51.436;5.978;2023-02-28T00:29:33;31.50;30.12;32.71;;
67308;Laerm;57662;51.436;5.978;2023-02-28T00:29:45;31.59;30.15;33.09;;
67308;Laerm;57662;51.436;5.978;2023-02-28T00:29:56;31.55;30.32;33.01;;
67308;Laerm;57662;51.436;5.978;2023-02-28T00:30:08;31.58;30.01;33.43;;
67308;Laerm;57662;51.436;5.978;2023-02-28T00:30:19;31.43;30.14;32.72;;
67308;Laerm;57662;51.436;5.978;2023-02-28T00:30:30;31.75;30.58;33.16;;
67308;Laerm;57662;51.436;5.978;2023-02-28T00:30:41;32.06;30.14;33.69;;
67308;Laerm;57662;51.436;5.978;2023-02-28T00:30:51;32.41;30.88;34.02;;
67308;Laerm;57662;51.436;5.978;2023-02-28T00:31:02;32.10;30.49;33.62;;
67308;Laerm;57662;51.436;5.978;2023-02-28T00:31:12;45.22;31.11;59.02;;
67308;Laerm;57662;51.436;5.978;2023-02-28T00:31:23;32.52;30.93;34.02;;
67308;Laerm;57662;51.436;5.978;2023-02-28T00:31:33;32.32;30.84;34.22;;
67308;Laerm;57662;51.436;5.978;2023-02-28T00:31:43;31.88;30.49;33.36;;
67308;Laerm;57662;51.436;5.978;2023-02-28T00:31:54;32.20;30.91;34.05;;
67308;Laerm;57662;51.436;5.978;2023-02-28T00:32:04;33.76;31.04;36.09;;
67308;Laerm;57662;51.436;5.978;2023-02-28T00:32:15;33.43;31.03;39.15;;
67308;Laerm;57662;51.436;5.978;2023-02-28T00:32:25;34.89;32.12;39.45;;
67308;Laerm;57662;51.436;5.978;2023-02-28T00:32:36;33.02;30.83;36.09;;
67308;Laerm;57662;51.436;5.978;2023-02-28T00:32:46;33.05;31.24;36.06;;
67308;Laerm;57662;51.436;5.978;2023-02-28T00:32:57;32.13;30.61;33.74;;
67308;Laerm;57662;51.436;5.978;2023-02-28T00:33:07;31.89;30.44;33.24;;
67308;Laerm;57662;51.436;5.978;2023-02-28T00:33:17;32.28;30.71;34.86;;
67308;Laerm;57662;51.436;5.978;2023-02-28T00:33:28;34.28;31.13;36.86;;
67308;Laerm;57662;51.436;5.978;2023-02-28T00:33:38;41.08;36.27;44.83;;
67308;Laerm;57662;51.436;5.978;2023-02-28T00:33:49;34.55;31.16;45.12;;
67308;Laerm;57662;51.436;5.978;2023-02-28T00:34:01;32.62;31.22;35.72;;
67308;Laerm;57662;51.436;5.978;2023-02-28T00:34:11;31.71;30.26;33.03;;
67308;Laerm;57662;51.436;5.978;2023-02-28T00:34:22;31.54;30.09;33.05;;
67308;Laerm;57662;51.436;5.978;2023-02-28T00:34:32;31.68;30.41;32.98;;
67308;Laerm;57662;51.436;5.978;2023-02-28T00:34:47;31.68;30.09;33.10;;
67308;Laerm;57662;51.436;5.978;2023-02-28T00:34:57;31.71;30.30;33.03;;
67308;Laerm;57662;51.436;5.978;2023-02-28T00:35:08;31.63;30.28;32.87;;
67308;Laerm;57662;51.436;5.978;2023-02-28T00:35:19;31.94;30.35;33.60;;
67308;Laerm;57662;51.436;5.978;2023-02-28T00:35:29;31.84;30.39;33.87;;
67308;Laerm;57662;51.436;5.978;2023-02-28T00:35:40;31.71;30.19;33.22;;
67308;Laerm;57662;51.436;5.978;2023-02-28T00:35:51;31.67;30.22;33.69;;
67308;Laerm;57662;51.436;5.978;2023-02-28T00:36:02;31.86;30.13;33.31;;
67308;Laerm;57662;51.436;5.978;2023-02-28T00:36:14;31.91;30.51;33.93;;
67308;Laerm;57662;51.436;5.978;2023-02-28T00:36:24;31.63;30.16;33.27;;
67308;Laerm;57662;51.436;5.978;2023-02-28T00:36:35;31.39;29.92;32.83;;
67308;Laerm;57662;51.436;5.978;2023-02-28T00:36:45;31.58;29.99;33.23;;
67308;Laerm;57662;51.436;5.978;2023-02-28T00:36:58;32.61;30.71;35.79;;
67308;Laerm;57662;51.436;5.978;2023-02-28T00:37:09;32.29;30.34;37.89;;
67308;Laerm;57662;51.436;5.978;2023-02-28T00:37:22;31.57;29.97;32.95;;
67308;Laerm;57662;51.436;5.978;2023-02-28T00:37:32;31.64;30.38;32.97;;
67308;Laerm;57662;51.436;5.978;2023-02-28T00:37:43;31.43;30.03;33.00;;
67308;Laerm;57662;51.436;5.978;2023-02-28T00:37:53;31.51;29.95;33.31;;
67308;Laerm;57662;51.436;5.978;2023-02-28T00:38:04;31.58;30.24;32.95;;
67308;Laerm;57662;51.436;5.978;2023-02-28T00:38:14;31.61;30.23;33.01;;
67308;Laerm;57662;51.436;5.978;2023-02-28T00:38:25;31.55;30.11;33.05;;
67308;Laerm;57662;51.436;5.978;2023-02-28T00:38:36;31.60;30.45;33.16;;
67308;Laerm;57662;51.436;5.978;2023-02-28T00:38:46;31.47;30.18;33.21;;
67308;Laerm;57662;51.436;5.978;2023-02-28T00:38:56;31.58;30.17;32.81;;
67308;Laerm;57662;51.436;5.978;2023-02-28T00:39:07;31.80;30.48;33.35;;
67308;Laerm;57662;51.436;5.978;2023-02-28T00:39:17;31.92;30.44;34.00;;
67308;Laerm;57662;51.436;5.978;2023-02-28T00:39:27;32.72;30.49;36.26;;
67308;Laerm;57662;51.436;5.978;2023-02-28T00:39:38;32.95;30.91;36.55;;
67308;Laerm;57662;51.436;5.978;2023-02-28T00:39:49;32.73;30.91;35.44;;
67308;Laerm;57662;51.436;5.978;2023-02-28T00:40:00;32.32;29.97;33.84;;
67308;Laerm;57662;51.436;5.978;2023-02-28T00:40:10;32.05;30.40;33.96;;
67308;Laerm;57662;51.436;5.978;2023-02-28T00:40:22;32.24;30.58;34.23;;
67308;Laerm;57662;51.436;5.978;2023-02-28T00:40:32;31.95;30.52;33.52;;
67308;Laerm;57662;51.436;5.978;2023-02-28T00:40:42;31.91;30.28;33.15;;
67308;Laerm;57662;51.436;5.978;2023-02-28T00:40:53;31.98;30.42;33.73;;
67308;Laerm;57662;51.436;5.978;2023-02-28T00:41:03;31.86;30.49;33.46;;
67308;Laerm;57662;51.436;5.978;2023-02-28T00:41:14;31.75;30.25;32.98;;
67308;Laerm;57662;51.436;5.978;2023-02-28T00:41:25;31.51;30.27;32.74;;
67308;Laerm;57662;51.436;5.978;2023-02-28T00:41:35;31.58;30.29;33.06;;
67308;Laerm;57662;51.436;5.978;2023-02-28T00:41:45;31.52;30.35;32.73;;
67308;Laerm;57662;51.436;5.978;2023-02-28T00:41:56;31.57;30.30;32.99;;
67308;Laerm;57662;51.436;5.978;2023-02-28T00:42:06;31.47;30.16;33.69;;
67308;Laerm;57662;51.436;5.978;2023-02-28T00:42:17;31.31;30.15;32.43;;
67308;Laerm;57662;51.436;5.978;2023-02-28T00:42:27;31.53;30.15;33.00;;
67308;Laerm;57662;51.436;5.978;2023-02-28T00:42:37;31.56;30.18;33.07;;
67308;Laerm;57662;51.436;5.978;2023-02-28T00:42:48;31.76;30.29;35.67;;
67308;Laerm;57662;51.436;5.978;2023-02-28T00:42:58;31.62;30.07;33.99;;
67308;Laerm;57662;51.436;5.978;2023-02-28T00:43:09;31.77;30.48;33.09;;
67308;Laerm;57662;51.436;5.978;2023-02-28T00:43:20;31.67;30.54;33.32;;
67308;Laerm;57662;51.436;5.978;2023-02-28T00:43:31;31.61;30.20;33.00;;
67308;Laerm;57662;51.436;5.978;2023-02-28T00:43:41;31.61;29.90;33.06;;
67308;Laerm;57662;51.436;5.978;2023-02-28T00:43:52;31.58;29.99;32.91;;
67308;Laerm;57662;51.436;5.978;2023-02-28T00:44:02;31.57;29.93;33.15;;
67308;Laerm;57662;51.436;5.978;2023-02-28T00:44:13;31.46;30.05;33.11;;
67308;Laerm;57662;51.436;5.978;2023-02-28T00:44:23;31.58;30.03;33.32;;
67308;Laerm;57662;51.436;5.978;2023-02-28T00:44:34;31.65;30.18;32.99;;
67308;Laerm;57662;51.436;5.978;2023-02-28T00:44:44;31.57;30.27;33.23;;
67308;Laerm;57662;51.436;5.978;2023-02-28T00:44:55;31.55;30.29;33.43;;
67308;Laerm;57662;51.436;5.978;2023-02-28T00:45:05;31.72;29.95;33.22;;
67308;Laerm;57662;51.436;5.978;2023-02-28T00:45:16;32.24;30.65;34.89;;
67308;Laerm;57662;51.436;5.978;2023-02-28T00:45:26;31.83;30.19;33.15;;
67308;Laerm;57662;51.436;5.978;2023-02-28T00:45:36;31.62;30.45;33.52;;
67308;Laerm;57662;51.436;5.978;2023-02-28T00:45:46;31.93;30.22;40.90;;
67308;Laerm;57662;51.436;5.978;2023-02-28T00:45:57;32.05;30.30;33.72;;
67308;Laerm;57662;51.436;5.978;2023-02-28T00:46:08;32.12;30.68;34.18;;
67308;Laerm;57662;51.436;5.978;2023-02-28T00:46:18;32.48;30.36;35.27;;
67308;Laerm;57662;51.436;5.978;2023-02-28T00:46:28;31.87;30.58;33.48;;
67308;Laerm;57662;51.436;5.978;2023-02-28T00:46:39;31.87;30.20;33.31;;
67308;Laerm;57662;51.436;5.978;2023-02-28T00:46:49;31.74;30.40;32.73;;
67308;Laerm;57662;51.436;5.978;2023-02-28T00:47:00;31.87;30.15;33.33;;
67308;Laerm;57662;51.436;5.978;2023-02-28T00:47:10;31.84;30.15;33.05;;
67308;Laerm;57662;51.436;5.978;2023-02-28T00:47:20;31.86;30.26;34.05;;
67308;Laerm;57662;51.436;5.978;2023-02-28T00:47:31;32.71;31.04;34.23;;
67308;Laerm;57662;51.436;5.978;2023-02-28T00:47:42;33.50;31.66;35.82;;
67308;Laerm;57662;51.436;5.978;2023-02-28T00:47:52;34.16;31.93;38.26;;
67308;Laerm;57662;51.436;5.978;2023-02-28T00:48:03;33.98;31.89;37.09;;
67308;Laerm;57662;51.436;5.978;2023-02-28T00:48:14;35.51;32.98;39.53;;
67308;Laerm;57662;51.436;5.978;2023-02-28T00:48:24;33.97;30.52;38.97;;
67308;Laerm;57662;51.436;5.978;2023-02-28T00:48:35;31.71;30.06;32.87;;
67308;Laerm;57662;51.436;5.978;2023-02-28T00:48:45;31.74;30.40;33.51;;
67308;Laerm;57662;51.436;5.978;2023-02-28T00:48:55;31.51;30.24;32.64;;
67308;Laerm;57662;51.436;5.978;2023-02-28T00:49:06;33.67;30.36;42.84;;
67308;Laerm;57662;51.436;5.978;2023-02-28T00:49:17;42.55;37.25;46.11;;
67308;Laerm;57662;51.436;5.978;2023-02-28T00:49:27;41.82;36.21;45.88;;
67308;Laerm;57662;51.436;5.978;2023-02-28T00:49:38;42.40;38.30;45.01;;
67308;Laerm;57662;51.436;5.978;2023-02-28T00:49:48;42.86;38.65;45.75;;
67308;Laerm;57662;51.436;5.978;2023-02-28T00:49:59;43.59;39.08;47.62;;
67308;Laerm;57662;51.436;5.978;2023-02-28T00:50:09;66.35;45.72;70.50;;
67308;Laerm;57662;51.436;5.978;2023-02-28T00:50:20;65.44;44.14;72.02;;
67308;Laerm;57662;51.436;5.978;2023-02-28T00:50:30;43.49;39.09;46.97;;
67308;Laerm;57662;51.436;5.978;2023-02-28T00:50:40;41.33;37.16;44.83;;
67308;Laerm;57662;51.436;5.978;2023-02-28T00:50:51;39.58;35.94;43.90;;
67308;Laerm;57662;51.436;5.978;2023-02-28T00:51:01;42.36;37.07;45.58;;
67308;Laerm;57662;51.436;5.978;2023-02-28T00:51:12;38.88;36.00;43.20;;
67308;Laerm;57662;51.436;5.978;2023-02-28T00:51:23;38.63;35.22;41.59;;
67308;Laerm;57662;51.436;5.978;2023-02-28T00:51:33;35.85;32.60;39.87;;
67308;Laerm;57662;51.436;5.978;2023-02-28T00:51:43;35.49;32.45;42.32;;
67308;Laerm;57662;51.436;5.978;2023-02-28T00:51:54;35.87;32.95;39.14;;
67308;Laerm;57662;51.436;5.978;2023-02-28T00:52:04;33.10;31.12;35.38;;
67308;Laerm;57662;51.436;5.978;2023-02-28T00:52:15;32.96;31.19;34.89;;
67308;Laerm;57662;51.436;5.978;2023-02-28T00:52:25;33.64;31.27;37.20;;
67308;Laerm;57662;51.436;5.978;2023-02-28T00:52:36;32.24;30.61;33.86;;
67308;Laerm;57662;51.436;5.978;2023-02-28T00:52:47;32.32;30.86;33.67;;
67308;Laerm;57662;51.436;5.978;2023-02-28T00:52:58;32.01;30.58;33.20;;
67308;Laerm;57662;51.436;5.978;2023-02-28T00:53:08;32.19;30.76;34.41;;
67308;Laerm;57662;51.436;5.978;2023-02-28T00:53:19;31.74;30.54;33.53;;
67308;Laerm;57662;51.436;5.978;2023-02-28T00:53:29;31.68;30.39;34.32;;
67308;Laerm;57662;51.436;5.978;2023-02-28T00:53:40;31.48;30.23;32.63;;
67308;Laerm;57662;51.436;5.978;2023-02-28T00:53:50;31.72;30.53;33.01;;
67308;Laerm;57662;51.436;5.978;2023-02-28T00:54:00;31.92;30.66;33.66;;
67308;Laerm;57662;51.436;5.978;2023-02-28T00:54:11;31.72;30.33;33.10;;
67308;Laerm;57662;51.436;5.978;2023-02-28T00:54:22;31.61;30.04;32.95;;
67308;Laerm;57662;51.436;5.978;2023-02-28T00:54:32;32.98;30.63;42.37;;
67308;Laerm;57662;51.436;5.978;2023-02-28T00:54:43;35.93;30.56;45.19;;
67308;Laerm;57662;51.436;5.978;2023-02-28T00:54:54;42.74;36.67;47.20;;
67308;Laerm;57662;51.436;5.978;2023-02-28T00:55:04;40.63;35.16;43.28;;
67308;Laerm;57662;51.436;5.978;2023-02-28T00:55:14;41.21;35.94;43.94;;
67308;Laerm;57662;51.436;5.978;2023-02-28T00:55:25;40.37;35.40;43.09;;
67308;Laerm;57662;51.436;5.978;2023-02-28T00:55:35;42.47;35.74;45.99;;
67308;Laerm;57662;51.436;5.978;2023-02-28T00:55:45;40.88;35.30;45.00;;
67308;Laerm;57662;51.436;5.978;2023-02-28T00:55:56;40.32;35.12;42.88;;
67308;Laerm;57662;51.436;5.978;2023-02-28T00:56:06;43.36;35.66;47.16;;
67308;Laerm;57662;51.436;5.978;2023-02-28T00:56:17;43.78;38.55;47.07;;
67308;Laerm;57662;51.436;5.978;2023-02-28T00:56:27;46.46;40.18;51.89;;
67308;Laerm;57662;51.436;5.978;2023-02-28T00:56:37;58.63;51.38;61.24;;
67308;Laerm;57662;51.436;5.978;2023-02-28T00:56:48;49.05;40.82;56.17;;
67308;Laerm;57662;51.436;5.978;2023-02-28T00:56:58;43.45;39.83;46.35;;
67308;Laerm;57662;51.436;5.978;2023-02-28T00:57:09;44.82;39.67;48.09;;
67308;Laerm;57662;51.436;5.978;2023-02-28T00:57:19;43.37;40.05;46.80;;
67308;Laerm;57662;51.436;5.978;2023-02-28T00:57:30;66.91;43.52;73.66;;
67308;Laerm;57662;51.436;5.978;2023-02-28T00:57:40;71.94;68.62;74.47;;
67308;Laerm;57662;51.436;5.978;2023-02-28T00:57:51;62.25;46.19;72.09;;
67308;Laerm;57662;51.436;5.978;2023-02-28T00:58:01;45.04;39.76;49.52;;
67308;Laerm;57662;51.436;5.978;2023-02-28T00:58:11;44.19;40.83;47.15;;
67308;Laerm;57662;51.436;5.978;2023-02-28T00:58:21;45.51;41.37;49.43;;
67308;Laerm;57662;51.436;5.978;2023-02-28T00:58:32;41.04;37.63;45.09;;
67308;Laerm;57662;51.436;5.978;2023-02-28T00:58:42;40.42;35.87;44.78;;
67308;Laerm;57662;51.436;5.978;2023-02-28T00:58:53;39.03;35.14;43.79;;
67308;Laerm;57662;51.436;5.978;2023-02-28T00:59:03;38.92;35.04;42.31;;
67308;Laerm;57662;51.436;5.978;2023-02-28T00:59:14;36.95;33.30;41.66;;
67308;Laerm;57662;51.436;5.978;2023-02-28T00:59:25;34.63;32.71;37.14;;
67308;Laerm;57662;51.436;5.978;2023-02-28T00:59:35;35.10;32.90;37.01;;
67308;Laerm;57662;51.436;5.978;2023-02-28T00:59:45;33.72;31.59;36.14;;
67308;Laerm;57662;51.436;5.978;2023-02-28T00:59:56;32.95;31.40;34.82;;
67308;Laerm;57662;51.436;5.978;2023-02-28T01:00:06;42.66;31.29;57.16;;